SCAR METAR and TAF weather

Enter ICAO airport designator
Station Type Date Time Source
SCAR METAR 2018/12/10 14:00 UTC NOAA

SCAR 101400Z 22004KT 170V260 9999 OVC029 21/13 Q1015


Station Type Date Time Source
SCAR Decoded METAR 2018/12/10 14:00 UTC NOAA

Arica, Chile (SCAR) 18-20S 070-20W 58M
Dec 10, 2018 - 09:00 AM EST / 2018.12.10 1400 UTC
Wind: from the SW (220 degrees) at 5 MPH (4 KT) (direction variable):0
Visibility: greater than 7 mile(s):0
Sky conditions: overcast
Temperature: 69 F (21 C)
Dew Point: 55 F (13 C)
Relative Humidity: 60%
Pressure (altimeter): 29.97 in. Hg (1015 hPa)
ob: SCAR 101400Z 22004KT 170V260 9999 OVC029 21/13 Q1015
cycle: 14

Station Type Date Time Source
SCAR TAF 2018/12/10 12:07 UTC NOAA

TAF SCAR 101013Z 1012/1112 24004KT 9999 BKN030 TX23/1018Z TN17/1107Z
BECMG 1016/1018 20014KT CAVOK
BECMG 1022/1100 16004KT
BECMG 1102/1104 BKN030
TEMPO 1105/1109 12004KT


Example: see airport list